Time;durP1;ratioP1;P1;durP2;ratioP2;P2;SDS_P1;SDS_P2;PMS_P1;PMS_P2;Temp;Humidity;BMP_temperature;BMP_pressure;BME280_temperature;BME280_humidity;BME280_pressure;Samples;Min_cycle;Max_cycle;Signal;HPM_P1;HPM_P2
2023/11/03 00:00:07;;;;;;;4.67;3.80;;;10.80;99.90;;;11.04;100.00;97991.44;4735414;30;20834;-67
2023/11/03 00:02:37;;;;;;;5.60;4.13;;;10.90;99.90;;;11.09;100.00;97991.44;4735179;30;20470;-67
2023/11/03 00:05:08;;;;;;;6.83;3.90;;;10.90;99.90;;;11.14;100.00;97991.41;4733458;30;20436;-68
2023/11/03 00:07:37;;;;;;;8.10;4.17;;;11.00;99.90;;;11.10;100.00;97990.34;4735314;30;20471;-67
2023/11/03 00:10:09;;;;;;;5.90;3.93;;;11.00;99.90;;;10.93;100.00;97977.16;4735600;30;20514;-67
2023/11/03 00:12:39;;;;;;;8.23;4.63;;;10.90;99.90;;;11.18;100.00;97977.06;4733818;30;20544;-67
2023/11/03 00:15:09;;;;;;;6.53;3.20;;;10.90;99.90;;;11.00;100.00;97976.84;4735398;30;20458;-67
2023/11/03 00:17:38;;;;;;;6.40;3.37;;;10.90;99.90;;;10.93;100.00;97982.56;4738287;30;21034;-67
2023/11/03 00:20:08;;;;;;;4.73;3.20;;;10.80;99.90;;;10.94;100.00;97978.75;4735234;30;20461;-67
2023/11/03 00:22:36;;;;;;;5.63;3.30;;;10.80;99.90;;;10.95;100.00;97971.47;4734967;30;20902;-67
2023/11/03 00:25:12;;;;;;;4.90;3.07;;;10.80;99.90;;;10.82;100.00;97968.25;4735026;30;20508;-66
2023/11/03 00:27:44;;;;;;;5.90;5.17;;;10.80;99.90;;;10.87;100.00;97972.84;4734933;30;20437;-67
2023/11/03 00:30:14;;;;;;;4.70;3.20;;;10.80;99.90;;;10.89;100.00;97973.41;4733622;30;20504;-68
2023/11/03 00:32:43;;;;;;;5.30;3.37;;;10.70;99.90;;;10.89;100.00;97976.88;4748124;30;20892;-68
2023/11/03 00:35:11;;;;;;;6.83;3.63;;;10.70;99.90;;;10.80;100.00;97989.34;4748208;30;20468;-67
2023/11/03 00:37:40;;;;;;;8.40;4.37;;;10.70;99.90;;;10.90;100.00;98002.84;4734747;30;20498;-66
2023/11/03 00:40:13;;;;;;;5.23;2.97;;;10.80;99.90;;;10.94;100.00;98024.75;4735098;30;20456;-67
2023/11/03 00:42:42;;;;;;;6.10;3.47;;;10.80;99.90;;;10.79;100.00;98044.56;4734871;30;20437;-68
2023/11/03 00:45:11;;;;;;;4.10;3.00;;;10.70;99.90;;;10.70;100.00;98046.16;4735217;30;20413;-68
2023/11/03 00:47:41;;;;;;;5.00;3.30;;;10.70;99.90;;;10.66;100.00;98041.56;4747398;30;20495;-67
2023/11/03 00:50:12;;;;;;;4.53;3.50;;;10.60;99.90;;;10.60;100.00;98021.81;4734892;30;20974;-68
2023/11/03 00:52:40;;;;;;;6.43;2.93;;;10.60;99.90;;;10.55;100.00;98032.69;4734611;30;20490;-67
2023/11/03 00:55:11;;;;;;;5.40;3.97;;;10.50;99.90;;;10.54;100.00;98025.63;4735072;30;20460;-67
2023/11/03 00:57:39;;;;;;;7.43;3.53;;;10.50;99.90;;;10.59;100.00;98017.53;4734571;30;20480;-67
2023/11/03 01:00:12;;;;;;;5.20;3.47;;;10.50;99.90;;;10.49;100.00;97993.19;4748182;30;20532;-67
2023/11/03 01:02:41;;;;;;;7.00;4.10;;;10.50;99.90;;;10.45;100.00;97957.78;4733079;30;20456;-68
2023/11/03 01:05:11;;;;;;;5.97;4.13;;;10.50;99.90;;;10.42;100.00;97966.44;4734197;30;20450;-66
2023/11/03 01:07:41;;;;;;;6.70;3.73;;;10.40;99.90;;;10.61;100.00;97977.50;4747093;30;20463;-69
2023/11/03 01:10:16;;;;;;;5.97;3.87;;;10.50;99.90;;;10.57;100.00;97987.22;4733621;30;20480;-68
2023/11/03 01:12:46;;;;;;;6.53;3.63;;;10.50;99.90;;;10.69;100.00;98014.00;4745195;30;20989;-68
2023/11/03 01:15:15;;;;;;;3.30;2.90;;;10.50;99.90;;;10.67;100.00;98024.25;4733921;30;20477;-68
2023/11/03 01:17:43;;;;;;;6.13;2.60;;;10.50;99.90;;;10.50;100.00;98032.69;4733785;30;20450;-69
2023/11/03 01:20:19;;;;;;;6.73;3.80;;;10.40;99.90;;;10.64;100.00;98033.75;4734256;30;20479;-67
2023/11/03 01:22:49;;;;;;;6.20;3.87;;;10.50;99.90;;;10.60;100.00;98023.75;4738406;30;20464;-68
2023/11/03 01:25:19;;;;;;;6.47;3.40;;;10.50;99.90;;;10.69;100.00;98022.94;4734029;30;20451;-68
2023/11/03 01:27:50;;;;;;;4.53;2.80;;;10.50;99.90;;;10.63;100.00;98017.78;4743312;30;20545;-67
2023/11/03 01:30:20;;;;;;;5.43;3.77;;;10.50;99.90;;;10.50;100.00;98013.75;4734349;30;20439;-67
2023/11/03 01:32:52;;;;;;;3.30;2.90;;;10.40;99.90;;;10.37;100.00;98003.47;4734003;30;20470;-68
2023/11/03 01:35:24;;;;;;;8.67;4.03;;;10.40;99.90;;;10.46;100.00;98004.53;4729707;30;21011;-67
2023/11/03 01:37:53;;;;;;;7.40;2.73;;;10.40;99.90;;;10.54;100.00;98012.13;4748420;30;20440;-67
2023/11/03 01:40:23;;;;;;;4.73;3.40;;;10.40;99.90;;;10.60;100.00;98012.94;4734757;30;20450;-67
2023/11/03 01:42:52;;;;;;;6.20;3.10;;;10.50;99.90;;;10.50;100.00;98011.03;4750342;30;20460;-67
2023/11/03 01:45:21;;;;;;;6.07;4.30;;;10.50;99.90;;;10.46;100.00;98008.06;4742150;30;20549;-67
2023/11/03 01:47:50;;;;;;;6.60;3.33;;;10.40;99.90;;;10.55;100.00;98007.53;4737723;30;20417;-67
2023/11/03 01:50:17;;;;;;;8.03;3.70;;;10.40;99.90;;;10.52;100.00;97992.63;4736398;30;20520;-66
2023/11/03 01:52:47;;;;;;;5.70;3.83;;;10.50;99.90;;;10.57;100.00;97987.22;4736264;30;20967;-67
2023/11/03 01:55:17;;;;;;;4.83;3.73;;;10.50;99.90;;;10.59;100.00;97990.50;4750941;30;20445;-67
2023/11/03 01:57:47;;;;;;;4.80;2.60;;;10.50;99.90;;;10.56;100.00;97991.00;4736238;30;20520;-67
2023/11/03 02:00:19;;;;;;;4.57;2.93;;;10.50;99.90;;;10.32;100.00;97984.53;4751410;30;20472;-68
2023/11/03 02:02:50;;;;;;;4.70;2.90;;;10.40;99.90;;;10.43;100.00;97972.66;4750751;30;20935;-66
2023/11/03 02:05:18;;;;;;;4.50;2.97;;;10.40;99.90;;;10.29;100.00;97958.06;4738004;30;20438;-67
2023/11/03 02:07:47;;;;;;;3.30;2.60;;;10.30;99.90;;;10.18;100.00;97948.34;4750875;30;20425;-67
2023/11/03 02:10:16;;;;;;;4.10;3.40;;;10.20;99.90;;;10.37;100.00;97955.63;4751031;30;20445;-67
2023/11/03 02:12:44;;;;;;;4.10;3.33;;;10.30;99.90;;;10.43;100.00;97953.72;4750510;30;20604;-67
2023/11/03 02:15:14;;;;;;;5.87;3.10;;;10.30;99.90;;;10.18;100.00;97948.34;4750351;30;20868;-67
2023/11/03 02:17:43;;;;;;;3.47;2.70;;;10.20;99.90;;;10.24;100.00;97949.97;4750571;30;20776;-68
2023/11/03 02:20:14;;;;;;;5.37;3.10;;;10.20;99.90;;;10.23;100.00;97964.56;4737213;30;20478;-66
2023/11/03 02:22:43;;;;;;;6.67;3.40;;;10.20;99.90;;;10.18;100.00;97959.16;4756675;30;20489;-68
2023/11/03 02:25:13;;;;;;;5.83;3.13;;;10.10;99.90;;;10.15;100.00;97951.56;4747430;30;20445;-68
2023/11/03 02:27:42;;;;;;;6.10;3.50;;;10.10;99.90;;;10.29;100.00;97945.38;4734470;30;20462;-66
2023/11/03 02:30:11;;;;;;;3.67;2.60;;;10.20;99.90;;;10.08;100.00;97941.00;4737077;30;20453;-68
2023/11/03 02:32:40;;;;;;;6.07;3.83;;;10.10;99.90;;;10.20;100.00;97957.00;4750251;30;20468;-68
2023/11/03 02:35:09;;;;;;;4.30;3.00;;;10.10;99.90;;;10.02;100.00;97939.41;4736748;30;20409;-68
2023/11/03 02:37:38;;;;;;;4.90;3.43;;;10.00;99.90;;;10.08;100.00;97916.69;4750382;30;20477;-68
2023/11/03 02:40:09;;;;;;;3.97;3.10;;;10.00;99.90;;;10.13;100.00;97905.06;4735382;30;20493;-68
2023/11/03 02:42:39;;;;;;;4.33;2.67;;;10.10;99.90;;;9.92;100.00;97905.06;4735407;30;20474;-68
2023/11/03 02:45:08;;;;;;;3.47;1.83;;;10.00;99.90;;;10.03;100.00;97901.31;4736769;30;20441;-68
2023/11/03 02:47:37;;;;;;;5.53;2.73;;;10.00;99.90;;;10.15;100.00;97911.84;4736386;30;20532;-68
2023/11/03 02:50:08;;;;;;;5.33;3.23;;;10.10;99.90;;;10.03;100.00;97925.63;4734704;30;20431;-68
2023/11/03 02:52:37;;;;;;;4.17;3.00;;;10.00;99.90;;;10.00;100.00;97941.56;4736312;30;20557;-68
2023/11/03 02:55:07;;;;;;;3.20;2.73;;;10.00;99.90;;;9.89;100.00;97943.44;4750082;30;20425;-67
2023/11/03 02:57:35;;;;;;;4.10;2.70;;;9.90;99.90;;;9.87;100.00;97956.41;4736297;30;20449;-67
2023/11/03 03:00:08;;;;;;;5.57;2.50;;;9.90;99.90;;;9.81;100.00;97954.78;4736268;30;20985;-67
2023/11/03 03:02:36;;;;;;;6.40;3.40;;;9.90;99.90;;;9.84;100.00;97946.13;4736123;30;20470;-67
2023/11/03 03:05:07;;;;;;;4.13;3.53;;;9.80;99.90;;;9.95;100.00;97947.78;4734887;30;20422;-67
2023/11/03 03:07:35;;;;;;;3.93;2.67;;;9.90;99.90;;;9.92;100.00;97942.88;4733499;30;20438;-67
2023/11/03 03:10:04;;;;;;;3.80;2.93;;;9.90;99.90;;;10.03;100.00;97939.13;4736308;30;20440;-67
2023/11/03 03:12:33;;;;;;;4.03;2.30;;;10.00;99.90;;;9.92;100.00;97937.50;4735944;30;20474;-67
2023/11/03 03:15:03;;;;;;;4.67;2.43;;;9.90;99.90;;;9.96;100.00;97938.59;4736014;30;20476;-68
2023/11/03 03:17:33;;;;;;;2.77;2.33;;;9.90;99.90;;;9.99;100.00;97929.94;4735826;30;20462;-66
2023/11/03 03:20:03;;;;;;;3.37;2.70;;;9.90;99.90;;;9.84;100.00;97935.34;4736272;30;20569;-67
2023/11/03 03:22:32;;;;;;;3.37;1.70;;;9.90;99.90;;;9.94;100.00;97943.44;4735920;30;21017;-67
2023/11/03 03:25:02;;;;;;;3.27;1.97;;;9.90;99.90;;;9.94;100.00;97939.94;4734247;30;20485;-68
2023/11/03 03:27:32;;;;;;;2.97;1.80;;;9.90;99.90;;;9.94;100.00;97940.75;4735949;30;20512;-68
2023/11/03 03:30:00;;;;;;;4.30;2.30;;;9.90;99.90;;;10.02;100.00;97948.31;4735109;30;20424;-67
2023/11/03 03:32:29;;;;;;;6.10;2.53;;;9.90;99.90;;;9.99;100.00;97948.84;4735709;30;20435;-68
2023/11/03 03:35:00;;;;;;;4.13;2.47;;;9.90;99.90;;;9.98;100.00;97946.41;4735524;30;20421;-67
2023/11/03 03:37:28;;;;;;;6.80;3.70;;;9.90;99.90;;;9.79;100.00;97946.13;4733666;30;20439;-68
2023/11/03 03:39:57;;;;;;;2.20;2.00;;;9.80;99.90;;;9.99;100.00;97948.84;4731785;30;20574;-67
2023/11/03 03:42:26;;;;;;;4.60;3.40;;;9.90;99.90;;;9.95;100.00;97955.06;4749290;30;20425;-67
2023/11/03 03:44:55;;;;;;;3.73;2.50;;;9.90;99.90;;;10.10;100.00;97954.25;4735616;30;20462;-67
2023/11/03 03:47:23;;;;;;;2.60;2.30;;;10.00;99.90;;;10.04;100.00;97956.97;4738062;30;20492;-67
2023/11/03 03:49:52;;;;;;;2.40;1.63;;;10.00;99.90;;;10.02;100.00;97952.91;4735412;30;20444;-68
2023/11/03 03:52:23;;;;;;;3.77;1.90;;;9.90;99.90;;;9.98;100.00;97949.94;4735224;30;20421;-66
2023/11/03 03:54:51;;;;;;;3.57;2.20;;;9.90;99.90;;;9.96;100.00;97949.41;4733956;30;20444;-66
2023/11/03 03:57:20;;;;;;;3.60;2.47;;;9.90;99.90;;;9.97;100.00;97950.22;4730489;30;20863;-67
2023/11/03 03:59:48;;;;;;;4.63;2.60;;;9.90;99.90;;;10.01;100.00;97941.31;4731328;30;20454;-66
2023/11/03 04:02:17;;;;;;;5.97;3.10;;;9.90;99.90;;;9.88;100.00;97936.41;4734900;30;20438;-67
2023/11/03 04:04:46;;;;;;;7.00;2.40;;;9.80;99.90;;;9.79;100.00;97932.63;4734893;30;20457;-67
2023/11/03 04:07:15;;;;;;;2.37;2.10;;;9.80;99.90;;;9.74;100.00;97929.09;4734547;30;20455;-67
2023/11/03 04:09:45;;;;;;;4.37;2.27;;;9.80;99.90;;;9.96;100.00;97917.00;4734649;30;20900;-67
2023/11/03 04:12:14;;;;;;;4.60;3.07;;;9.80;99.90;;;9.95;100.00;97926.16;4734857;30;20551;-67
2023/11/03 04:14:42;;;;;;;2.60;1.60;;;9.80;99.90;;;9.92;100.00;97926.69;4734648;30;20920;-68
2023/11/03 04:17:11;;;;;;;3.80;2.53;;;9.80;99.90;;;9.77;100.00;97920.47;4735198;30;20437;-67
2023/11/03 04:19:40;;;;;;;4.60;2.00;;;9.80;99.90;;;9.83;100.00;97917.50;4732508;30;20470;-67
2023/11/03 04:22:10;;;;;;;2.77;2.00;;;9.80;99.90;;;9.76;100.00;97922.38;4732825;30;20545;-68
2023/11/03 04:24:38;;;;;;;3.17;2.00;;;9.70;99.90;;;9.85;100.00;97922.66;4734645;30;20429;-66
2023/11/03 04:27:08;;;;;;;5.97;1.80;;;9.80;99.90;;;9.93;100.00;97933.72;4734763;30;20933;-66
2023/11/03 04:29:37;;;;;;;2.43;1.67;;;9.80;99.90;;;9.77;100.00;97929.41;4735204;30;20450;-66
2023/11/03 04:32:07;;;;;;;2.07;1.70;;;9.70;99.90;;;9.80;100.00;97934.25;4740199;30;20516;-66
2023/11/03 04:34:35;;;;;;;2.63;1.50;;;9.80;99.90;;;9.67;100.00;97937.50;4748451;30;20981;-67
2023/11/03 04:37:04;;;;;;;3.50;1.57;;;9.70;99.90;;;9.77;100.00;97934.81;4733766;30;20413;-67
2023/11/03 04:39:33;;;;;;;4.10;2.23;;;9.70;99.90;;;9.78;100.00;97930.22;4734579;30;20550;-67
2023/11/03 04:42:02;;;;;;;2.45;1.48;;;9.70;99.90;;;9.76;100.00;97935.06;4734293;30;20446;-67
2023/11/03 04:44:32;;;;;;;1.80;1.60;;;9.70;99.90;;;9.69;100.00;97935.31;4734583;30;20220;-67
2023/11/03 04:47:00;;;;;;;1.85;1.30;;;9.70;99.90;;;9.83;100.00;97922.91;4734293;30;20485;-67
2023/11/03 04:49:30;;;;;;;2.95;1.30;;;9.70;99.90;;;9.72;100.00;97921.28;4734592;30;20239;-67
2023/11/03 04:51:59;;;;;;;3.33;1.97;;;9.70;99.90;;;9.59;100.00;97925.31;4734599;30;20231;-68
2023/11/03 04:54:27;;;;;;;3.30;2.10;;;9.60;99.90;;;9.71;100.00;97924.25;4734659;30;20462;-68
2023/11/03 04:56:56;;;;;;;4.10;3.20;;;9.60;99.90;;;9.76;100.00;97932.34;4734308;30;20442;-67
2023/11/03 04:59:24;;;;;;;2.20;1.33;;;9.60;99.90;;;9.70;100.00;97926.13;4734519;30;20525;-68
2023/11/03 05:01:55;;;;;;;3.77;1.83;;;9.70;99.90;;;9.80;100.00;97926.16;4734270;30;20848;-67
2023/11/03 05:04:23;;;;;;;3.27;1.67;;;9.70;99.90;;;9.62;100.00;97925.88;4729628;30;20433;-67
2023/11/03 05:06:52;;;;;;;2.37;1.60;;;9.70;99.90;;;9.68;100.00;97920.22;4733983;30;20930;-67
2023/11/03 05:09:21;;;;;;;2.00;1.40;;;9.60;99.90;;;9.63;100.00;97922.91;4729372;30;20462;-67
2023/11/03 05:11:49;;;;;;;2.57;1.37;;;9.60;99.90;;;9.62;100.00;97937.47;4733549;30;20802;-67
2023/11/03 05:14:18;;;;;;;5.90;1.73;;;9.60;99.90;;;9.66;100.00;97927.75;4733427;30;20502;-68
2023/11/03 05:16:47;;;;;;;1.45;1.13;;;9.60;99.90;;;9.65;100.00;97930.72;4733974;30;20966;-67
2023/11/03 05:19:17;;;;;;;1.83;1.20;;;9.60;99.90;;;9.69;100.00;97939.91;4734081;30;20212;-67
2023/11/03 05:21:45;;;;;;;2.47;1.60;;;9.60;99.90;;;9.68;100.00;97944.50;4734128;30;20452;-67
2023/11/03 05:24:14;;;;;;;3.17;1.67;;;9.60;99.90;;;9.60;100.00;97934.22;4734194;30;20227;-67
2023/11/03 05:26:43;;;;;;;1.23;1.00;;;9.60;99.90;;;9.53;100.00;97930.97;4733374;30;20524;-68
2023/11/03 05:29:11;;;;;;;2.50;1.80;;;9.50;99.90;;;9.51;100.00;97935.81;4732944;30;20426;-68
2023/11/03 05:31:54;;;;;;;2.67;1.60;;;9.50;99.90;;;9.59;100.00;97941.50;4734316;30;20913;-68
2023/11/03 05:34:24;;;;;;;3.10;1.87;;;9.50;99.90;;;9.57;100.00;97940.97;4735063;30;20227;-68
2023/11/03 05:36:53;;;;;;;1.60;0.80;;;9.50;99.90;;;9.61;100.00;97946.66;4736723;30;20442;-67
2023/11/03 05:39:22;;;;;;;2.60;1.47;;;9.60;99.90;;;9.61;100.00;97946.66;4736190;30;20529;-67
2023/11/03 05:41:51;;;;;;;2.85;2.05;;;9.50;99.90;;;9.61;100.00;97952.03;4733870;30;20456;-68
2023/11/03 05:44:21;;;;;;;1.40;1.20;;;9.60;99.90;;;9.57;100.00;97959.06;4733608;30;20231;-67
2023/11/03 05:46:49;;;;;;;2.70;1.23;;;9.50;99.90;;;9.57;100.00;97959.06;4734172;30;20450;-68
2023/11/03 05:49:18;;;;;;;3.23;1.93;;;9.50;99.90;;;9.59;100.00;97959.59;4734290;30;20200;-66
2023/11/03 05:51:48;;;;;;;3.23;1.87;;;9.60;99.90;;;9.55;100.00;97961.19;4734077;30;20418;-67
2023/11/03 05:54:17;;;;;;;3.90;1.50;;;9.50;99.90;;;9.49;100.00;97960.38;4733783;30;20460;-66
2023/11/03 05:58:04;;;;;;;3.30;1.23;;;9.50;99.90;;;9.39;100.00;97962.25;4734489;30;20442;-65
2023/11/03 06:00:32;;;;;;;2.22;1.42;;;9.40;99.90;;;9.48;100.00;97958.78;4728398;30;20474;-66
2023/11/03 06:03:02;;;;;;;4.03;1.45;;;9.40;99.90;;;9.40;100.00;97958.47;4733778;30;20220;-66
2023/11/03 06:05:31;;;;;;;1.70;1.50;;;9.40;99.90;;;9.33;100.00;97956.03;4734147;30;20212;-65
2023/11/03 06:08:01;;;;;;;1.08;0.70;;;9.30;99.90;;;9.40;100.00;97936.88;4733358;30;20212;-66
2023/11/03 06:10:30;;;;;;;1.73;1.30;;;9.30;99.90;;;9.30;100.00;97932.25;4733097;30;20274;-65
2023/11/03 06:12:59;;;;;;;1.58;1.20;;;9.30;99.90;;;9.26;100.00;97930.34;4734306;30;20235;-65
2023/11/03 06:15:27;;;;;;;4.50;1.20;;;9.30;99.90;;;9.16;100.00;97926.56;4734051;30;20762;-66
2023/11/03 06:17:56;;;;;;;1.73;1.30;;;9.20;99.90;;;9.20;100.00;97940.31;4733419;30;20204;-66
2023/11/03 06:20:24;;;;;;;2.05;1.13;;;9.20;99.90;;;9.06;100.00;97950.78;4733570;30;20228;-67
2023/11/03 06:22:53;;;;;;;1.90;1.52;;;9.10;99.90;;;9.03;100.00;97972.09;4733376;30;20236;-67
2023/11/03 06:25:26;;;;;;;5.30;1.50;;;9.10;99.90;;;9.13;100.00;97994.53;4736708;30;20200;-67
2023/11/03 06:27:55;;;;;;;3.65;1.88;;;9.10;99.90;;;9.22;100.00;98019.13;4736810;30;20462;-67
2023/11/03 06:30:24;;;;;;;1.57;1.10;;;9.10;99.90;;;9.20;100.00;98018.56;4736459;30;20258;-67
2023/11/03 06:32:52;;;;;;;1.20;0.90;;;9.20;99.90;;;9.23;100.00;98033.41;4736702;30;20563;-67
2023/11/03 06:35:21;;;;;;;2.60;1.30;;;9.20;99.90;;;9.58;100.00;98041.66;4736602;30;20215;-66
2023/11/03 06:37:50;;;;;;;10.53;1.77;;;9.40;99.90;;;9.52;100.00;98050.81;4739616;30;20219;-68
2023/11/03 06:40:19;;;;;;;2.50;0.87;;;9.40;99.90;;;9.58;100.00;98060.56;4736236;30;20450;-66
2023/11/03 06:42:49;;;;;;;2.70;1.10;;;9.50;99.90;;;9.53;100.00;98065.94;4736516;30;20520;-66
2023/11/03 06:45:18;;;;;;;1.20;1.10;;;9.40;99.90;;;9.57;100.00;98058.94;4730043;30;20219;-66
2023/11/03 06:47:48;;;;;;;1.80;1.43;;;9.50;99.90;;;9.42;100.00;98065.09;4749920;30;20465;-67
2023/11/03 06:50:17;;;;;;;2.20;1.43;;;9.40;45.00;;;9.52;100.00;98061.63;4736437;30;20859;-67
2023/11/03 06:52:48;;;;;;;2.60;1.57;;;9.40;9.40;;;9.55;100.00;98050.28;4739037;30;20969;-67
2023/11/03 06:55:17;;;;;;;1.83;1.10;;;9.50;1.00;;;9.54;100.00;98046.75;4729323;30;20447;-66
2023/11/03 06:57:47;;;;;;;4.88;1.00;;;9.40;1.00;;;9.60;100.00;98047.59;4736630;30;20211;-66
2023/11/03 07:00:18;;;;;;;1.70;1.17;;;9.50;1.00;;;9.61;100.00;98035.72;4736653;30;20204;-67
2023/11/03 07:02:47;;;;;;;3.83;2.40;;;9.50;1.00;;;9.70;100.00;98034.13;4734891;30;20588;-67
2023/11/03 07:05:20;;;;;;;1.10;0.90;;;9.60;1.00;;;9.68;100.00;98033.59;4735925;30;20490;-67
2023/11/03 07:07:49;;;;;;;2.40;1.23;;;9.60;1.00;;;9.71;100.00;98051.97;4736191;30;20446;-67
2023/11/03 07:10:18;;;;;;;2.53;1.53;;;9.50;1.00;;;9.74;99.28;98054.13;4735760;30;20450;-67
2023/11/03 07:12:49;;;;;;;1.17;0.87;;;9.60;1.00;;;9.75;96.78;98069.25;4736434;30;20830;-67
2023/11/03 07:15:20;;;;;;;2.70;2.13;;;9.70;1.00;;;9.75;97.14;98061.16;4735740;30;20517;-66
2023/11/03 07:17:49;;;;;;;5.13;1.47;;;9.60;1.00;;;9.87;97.26;98052.81;4735726;30;20424;-68
2023/11/03 07:20:45;;;;;;;1.63;0.83;;;9.70;1.00;;;9.89;96.33;98039.84;4736005;30;21054;-68
2023/11/03 07:23:15;;;;;;;1.20;1.07;;;9.80;1.00;;;9.90;95.72;98036.09;4735035;30;20897;-67
2023/11/03 07:25:44;;;;;;;1.60;0.90;;;9.80;1.00;;;9.78;98.35;98044.41;4740315;30;20432;-67
2023/11/03 07:28:13;;;;;;;2.40;0.87;;;9.70;1.00;;;9.83;98.29;98049.81;4734485;30;20463;-68
2023/11/03 07:30:43;;;;;;;1.20;0.93;;;9.80;99.90;;;9.84;97.47;98059.56;4736166;30;21042;-68
2023/11/03 07:33:12;;;;;;;2.00;0.90;;;9.70;99.90;;;9.94;95.48;98059.59;4735460;30;20440;-68
2023/11/03 07:35:40;;;;;;;1.87;0.60;;;9.80;1.00;;;10.06;95.36;98058.53;4733633;30;20425;-67
2023/11/03 07:38:09;;;;;;;1.20;0.70;;;9.90;1.00;;;10.25;94.64;98043.47;4735500;30;20425;-67
2023/11/03 07:40:37;;;;;;;3.43;1.43;;;10.00;1.00;;;10.23;93.28;98034.81;4735544;30;20454;-68
2023/11/03 07:43:06;;;;;;;1.10;0.80;;;10.10;99.90;;;10.29;91.50;98033.75;4735267;30;20494;-68
2023/11/03 07:45:35;;;;;;;4.20;1.20;;;10.10;1.00;;;10.41;91.36;98047.78;4735254;30;20762;-68
2023/11/03 07:48:06;;;;;;;1.50;1.17;;;10.20;1.00;;;10.40;89.73;98047.00;4737421;30;20462;-67
2023/11/03 07:50:35;;;;;;;7.63;1.10;;;10.20;99.90;;;10.37;89.56;98046.72;4736935;30;20443;-67
2023/11/03 07:53:04;;;;;;;3.67;1.30;;;10.20;99.90;;;10.40;90.07;98057.00;4734749;30;20516;-67
2023/11/03 07:55:33;;;;;;;2.53;1.20;;;10.20;1.00;;;10.38;89.51;98078.88;4736255;30;20446;-67
2023/11/03 07:58:03;;;;;;;3.07;1.10;;;10.20;1.00;;;10.47;88.30;98084.56;4736026;30;20427;-68
2023/11/03 08:00:32;;;;;;;1.80;1.07;;;10.30;99.90;;;10.24;88.69;98087.78;4738081;30;20510;-68
2023/11/03 08:03:01;;;;;;;1.43;0.90;;;;;;;10.34;89.90;98095.91;4737231;30;21028;-67
2023/11/03 08:05:31;;;;;;;3.37;1.10;;;10.20;1.00;;;10.46;89.03;98093.75;4735053;30;20954;-67
2023/11/03 08:08:01;;;;;;;1.30;1.00;;;10.20;1.00;;;10.50;88.37;98100.25;4734754;30;20456;-67
2023/11/03 08:10:30;;;;;;;1.77;1.33;;;10.30;1.00;;;10.51;87.93;98106.44;4733286;30;20513;-67
2023/11/03 08:13:02;;;;;;;1.30;0.90;;;10.30;1.00;;;10.46;87.20;98101.84;4734849;30;20465;-67
2023/11/03 08:15:32;;;;;;;1.93;1.20;;;10.30;29.60;;;10.46;85.56;98109.97;4748449;30;20433;-67
2023/11/03 08:18:01;;;;;;;1.73;0.90;;;10.30;74.70;;;10.49;86.74;98114.84;4734948;30;20520;-67
2023/11/03 08:20:31;;;;;;;1.20;1.03;;;10.30;29.70;;;10.45;86.49;98117.28;4737411;30;20470;-67
2023/11/03 08:23:00;;;;;;;2.10;1.13;;;10.30;1.00;;;10.52;87.01;98125.13;4735191;30;20952;-67
2023/11/03 08:25:31;;;;;;;2.27;1.60;;;10.30;77.40;;;10.53;86.78;98124.03;4734605;30;20442;-67
2023/11/03 08:28:00;;;;;;;2.00;0.80;;;10.40;1.00;;;10.60;85.75;98129.97;4734737;30;20533;-67
2023/11/03 08:30:30;;;;;;;1.30;1.00;;;10.40;1.00;;;10.56;86.95;98134.31;4728409;30;20546;-67
2023/11/03 08:32:59;;;;;;;7.23;1.53;;;10.40;1.00;;;10.53;86.69;98147.56;4734490;30;20444;-66
2023/11/03 08:35:30;;;;;;;4.00;0.90;;;10.30;1.00;;;10.63;86.89;98153.78;4734019;30;20436;-67
2023/11/03 08:38:00;;;;;;;2.90;1.27;;;10.40;1.00;;;10.68;85.52;98143.00;4734354;30;20446;-66
2023/11/03 08:40:29;;;;;;;2.90;1.20;;;10.50;1.00;;;10.90;84.33;98146.22;4734490;30;20475;-68
2023/11/03 08:43:03;;;;;;;1.73;1.33;;;10.60;1.00;;;10.90;84.03;98135.41;4738081;30;20489;-67
2023/11/03 08:45:32;;;;;;;2.30;1.03;;;10.70;1.00;;;11.09;84.46;98135.66;4734401;30;20464;-67
2023/11/03 08:48:02;;;;;;;2.63;0.90;;;10.80;99.90;;;11.26;83.21;98128.09;4732635;30;20462;-67
2023/11/03 08:50:30;;;;;;;2.50;1.63;;;10.90;1.00;;;11.33;80.80;98131.31;4734526;30;20425;-67
2023/11/03 08:53:00;;;;;;;2.80;0.60;;;11.00;1.00;;;11.14;80.54;98116.72;4747623;30;20881;-67
2023/11/03 08:55:29;;;;;;;3.80;1.23;;;10.90;99.90;;;11.40;81.31;98109.38;4729179;30;20946;-68
2023/11/03 08:57:58;;;;;;;1.40;0.97;;;11.10;1.00;;;11.57;81.04;98100.94;4733806;30;20557;-67
2023/11/03 09:00:27;;;;;;;4.40;1.40;;;;;;;11.72;79.87;98099.00;4747256;30;20526;-68
2023/11/03 09:02:57;;;;;;;1.47;1.07;;;;;;;11.64;78.92;98094.13;4734683;30;21026;-68
2023/11/03 09:05:26;;;;;;;3.00;1.80;;;11.70;13.10;;;11.55;77.38;98112.03;4734095;30;21021;-68
2023/11/03 09:07:54;;;;;;;5.90;1.00;;;11.60;25.70;;;11.61;77.28;98116.38;4733891;30;20925;-67
2023/11/03 09:10:28;;;;;;;3.60;1.90;;;11.40;48.20;;;11.69;76.75;98123.09;4733955;30;20439;-68
2023/11/03 09:12:57;;;;;;;1.60;1.33;;;11.40;99.90;;;11.73;77.28;98127.72;4734315;30;20548;-67
2023/11/03 09:15:26;;;;;;;2.30;2.20;;;11.40;99.90;;;11.61;76.74;98119.06;4733509;30;20435;-68
2023/11/03 09:17:59;;;;;;;2.23;0.80;;;11.40;99.90;;;11.67;76.65;98120.66;4740037;30;20424;-67
2023/11/03 09:20:28;;;;;;;1.87;1.53;;;11.30;99.90;;;11.83;77.08;98134.19;4734334;30;20421;-67
2023/11/03 09:22:57;;;;;;;1.70;0.60;;;11.40;99.90;;;11.94;74.60;98141.19;4733916;30;20810;-68
2023/11/03 09:25:29;;;;;;;2.07;1.00;;;;;;;12.02;76.01;98138.69;4732612;30;20436;-67
2023/11/03 09:28:00;;;;;;;1.37;0.83;;;;;;;12.15;74.04;98142.72;4733904;30;20432;-66
2023/11/03 09:30:29;;;;;;;1.10;0.80;;;11.80;99.90;;;12.04;74.01;98141.16;4734017;30;20475;-67
2023/11/03 09:32:58;;;;;;;1.30;0.70;;;11.80;99.90;;;11.98;73.95;98142.25;4746964;30;20497;-68
2023/11/03 09:35:27;;;;;;;1.70;1.00;;;11.70;99.90;;;12.08;73.78;98142.19;4733692;30;20459;-68
2023/11/03 09:37:56;;;;;;;1.43;0.87;;;11.80;99.90;;;12.25;75.05;98145.34;4738981;30;20446;-66
2023/11/03 09:40:26;;;;;;;1.80;1.37;;;11.90;99.90;;;12.13;74.40;98147.59;4733335;30;20786;-66
2023/11/03 09:42:55;;;;;;;1.77;0.80;;;11.90;99.90;;;11.96;74.00;98149.84;4733699;30;20501;-66
2023/11/03 09:45:29;;;;;;;3.43;1.40;;;11.80;99.50;;;11.96;73.08;98144.41;4734494;30;20441;-66
2023/11/03 09:48:00;;;;;;;1.53;1.17;;;11.70;99.00;;;12.13;74.38;98129.44;4733579;30;20989;-66
2023/11/03 09:50:29;;;;;;;2.13;0.97;;;11.80;99.90;;;12.19;73.79;98128.34;4735796;30;20449;-65
2023/11/03 09:53:00;;;;;;;5.83;1.63;;;11.80;99.90;;;12.27;73.79;98129.63;4733739;30;20788;-66
2023/11/03 09:55:33;;;;;;;2.47;1.20;;;11.90;99.90;;;12.23;72.61;98133.19;4733821;30;20533;-67
2023/11/03 09:58:07;;;;;;;1.63;0.80;;;12.00;99.20;;;12.39;73.07;98132.03;4733751;30;21132;-66
2023/11/03 10:00:37;;;;;;;3.80;1.47;;;12.10;99.70;;;12.15;73.68;98137.31;4737777;30;20444;-67
2023/11/03 10:03:07;;;;;;;2.50;0.90;;;11.90;99.50;;;12.13;73.72;98136.75;4739101;30;20460;-67
2023/11/03 10:05:37;;;;;;;2.53;0.70;;;11.90;99.30;;;12.25;73.82;98134.50;4738065;30;20478;-66
2023/11/03 10:08:08;;;;;;;7.30;1.53;;;12.00;99.60;;;12.17;72.88;98130.50;4737540;30;20464;-66
2023/11/03 10:10:39;;;;;;;2.23;1.40;;;11.90;99.10;;;12.12;73.41;98122.41;4736419;30;20920;-66
2023/11/03 10:13:10;;;;;;;2.90;0.70;;;11.90;99.20;;;12.02;74.15;98116.22;4734409;30;20954;-66
2023/11/03 10:15:40;;;;;;;4.90;1.00;;;11.80;99.40;;;12.40;72.93;98112.72;4738488;30;20920;-66
2023/11/03 10:18:11;;;;;;;1.90;1.80;;;12.00;99.30;;;12.39;72.94;98113.81;4751554;30;20437;-66
2023/11/03 10:20:41;;;;;;;1.37;0.80;;;12.20;99.00;;;12.24;72.41;98100.38;4737370;30;20989;-66
2023/11/03 10:23:10;;;;;;;1.40;0.80;;;12.10;97.90;;;12.28;73.27;98101.44;4736511;30;20464;-66
2023/11/03 10:25:40;;;;;;;6.83;1.30;;;12.10;98.40;;;12.24;73.50;98097.66;4736721;30;20494;-66
2023/11/03 10:28:10;;;;;;;1.77;1.20;;;12.20;98.70;;;12.25;73.53;98099.28;4736523;30;20434;-66
2023/11/03 10:30:39;;;;;;;2.60;1.23;;;12.10;98.80;;;12.07;73.51;98102.63;4733150;30;20413;-67
2023/11/03 10:33:08;;;;;;;3.80;1.23;;;11.90;98.50;;;12.19;72.47;98106.66;4737513;30;20956;-66